Time;durP1;ratioP1;P1;durP2;ratioP2;P2;SDS_P1;SDS_P2;PMS_P1;PMS_P2;Temp;Humidity;BMP_temperature;BMP_pressure;BME280_temperature;BME280_humidity;BME280_pressure;Samples;Min_cycle;Max_cycle;Signal;HPM_P1;HPM_P2
2022/09/12 00:01:28;;;;;;;6.63;4.55;;;;;;;19.54;69.36;99270.78;3146224;28;20110;-66
2022/09/12 00:02:59;;;;;;;3.75;3.20;;;;;;;19.52;69.35;99270.13;3146029;28;20048;-66
2022/09/12 00:04:32;;;;;;;7.68;3.80;;;;;;;19.55;69.32;99272.50;3145253;28;20045;-66
2022/09/12 00:06:07;;;;;;;5.68;3.72;;;;;;;19.56;69.32;99270.66;3142646;28;20053;-66
2022/09/12 00:07:39;;;;;;;4.35;3.95;;;;;;;19.55;69.35;99277.78;3144856;28;20048;-66
2022/09/12 00:09:14;;;;;;;4.53;3.95;;;;;;;19.54;69.46;99278.72;3144725;28;20666;-66
2022/09/12 00:10:46;;;;;;;5.90;4.15;;;;;;;19.50;69.63;99260.66;3144911;28;20437;-66
2022/09/12 00:12:18;;;;;;;7.15;4.50;;;;;;;19.55;69.87;99268.97;3144873;28;20049;-66
2022/09/12 00:13:49;;;;;;;5.82;3.92;;;;;;;19.55;69.70;99271.63;3144700;28;20045;-66
2022/09/12 00:15:20;;;;;;;6.57;3.80;;;;;;;19.54;69.54;99268.16;3144865;28;20112;-64
2022/09/12 00:16:52;;;;;;;5.32;3.75;;;;;;;19.55;70.01;99267.19;3144837;28;20186;-66
2022/09/12 00:18:24;;;;;;;8.30;3.63;;;;;;;19.55;70.09;99269.84;3144512;28;20059;-65
2022/09/12 00:19:58;;;;;;;4.03;3.55;;;;;;;19.52;69.93;99270.13;3144821;28;20056;-65
2022/09/12 00:21:30;;;;;;;3.80;3.50;;;;;;;19.52;70.02;99274.53;3145316;28;20485;-66
2022/09/12 00:23:02;;;;;;;4.80;3.63;;;;;;;19.51;70.20;99278.16;3143294;28;20063;-64
2022/09/12 00:24:33;;;;;;;7.15;3.88;;;;;;;19.49;70.60;99280.97;3145440;28;20041;-67
2022/09/12 00:26:06;;;;;;;5.22;3.72;;;;;;;19.45;71.17;99276.91;3142247;28;20044;-66
2022/09/12 00:27:38;;;;;;;4.28;3.88;;;;;;;19.43;71.80;99281.53;3141846;28;20055;-67
2022/09/12 00:29:15;;;;;;;4.75;3.83;;;;;;;19.42;71.99;99284.28;3145432;28;20056;-67
2022/09/12 00:30:48;;;;;;;7.00;4.45;;;;;;;19.45;72.08;99290.13;3143930;28;20048;-67
2022/09/12 00:32:20;;;;;;;5.50;4.45;;;;;;;19.40;72.32;99281.78;3145708;28;20068;-66
2022/09/12 00:33:54;;;;;;;4.75;4.10;;;;;;;19.43;72.73;99285.94;3145897;28;20040;-66
2022/09/12 00:35:27;;;;;;;5.00;4.00;;;;;;;19.46;72.77;99293.59;3144893;28;20052;-65
2022/09/12 00:36:59;;;;;;;5.70;4.32;;;;;;;19.45;72.63;99290.13;3145469;28;20048;-67
2022/09/12 00:38:30;;;;;;;5.40;4.28;;;;;;;19.48;72.73;99294.28;3145833;28;20079;-66
2022/09/12 00:40:03;;;;;;;4.82;4.32;;;;;;;19.49;73.03;99293.31;3142519;28;20056;-68
2022/09/12 00:41:37;;;;;;;5.18;4.47;;;;;;;19.47;73.45;99282.06;3145502;28;20080;-67
2022/09/12 00:43:13;;;;;;;5.95;4.38;;;;;;;19.48;73.54;99289.00;3145634;28;20052;-67
2022/09/12 00:44:49;;;;;;;5.32;4.05;;;;;;;19.49;73.44;99295.94;3145367;28;20694;-64
2022/09/12 00:46:29;;;;;;;4.85;4.10;;;;;;;19.48;73.92;99292.47;3145394;28;20924;-67
2022/09/12 00:48:02;;;;;;;7.53;4.25;;;;;;;19.47;74.21;99287.34;3144685;28;20055;-65
2022/09/12 00:49:40;;;;;;;5.72;4.18;;;;;;;19.47;74.25;99284.72;3145315;28;20052;-64
2022/09/12 00:51:14;;;;;;;7.22;4.40;;;;;;;19.45;74.24;99286.66;3145644;28;20457;-64
2022/09/12 00:52:48;;;;;;;5.03;3.83;;;;;;;19.46;74.41;99277.75;3138956;28;20056;-66
2022/09/12 00:54:26;;;;;;;7.30;4.20;;;;;;;19.47;74.49;99271.50;3145442;28;20706;-65
2022/09/12 00:55:58;;;;;;;6.32;4.03;;;;;;;19.48;74.49;99267.88;3144970;28;20055;-64
2022/09/12 00:57:35;;;;;;;6.13;4.00;;;;;;;19.44;74.56;99266.50;3145313;28;20052;-64
2022/09/12 00:59:11;;;;;;;4.97;4.28;;;;;;;19.40;75.02;99259.81;3145382;28;20059;-64
2022/09/12 01:00:43;;;;;;;4.35;3.95;;;;;;;19.33;75.35;99265.66;3145326;28;20048;-64
2022/09/12 01:02:14;;;;;;;6.90;4.72;;;;;;;19.31;75.32;99264.97;3145310;28;20052;-66
2022/09/12 01:03:47;;;;;;;5.80;4.85;;;;;;;19.28;75.40;99267.03;3145072;28;20235;-66
2022/09/12 01:05:19;;;;;;;6.95;3.83;;;;;;;19.26;75.47;99263.72;3144867;28;20124;-64
2022/09/12 01:06:54;;;;;;;5.47;4.10;;;;;;;19.24;75.82;99266.47;3144870;28;20056;-64
2022/09/12 01:08:27;;;;;;;4.82;3.92;;;;;;;19.21;75.92;99261.47;3144201;28;20052;-64
2022/09/12 01:09:59;;;;;;;5.50;4.25;;;;;;;19.20;75.58;99265.09;3138173;28;20041;-64
2022/09/12 01:11:31;;;;;;;5.13;4.22;;;;;;;19.19;75.73;99257.31;3145171;28;20057;-64
2022/09/12 01:13:05;;;;;;;7.22;4.40;;;;;;;19.12;75.76;99264.94;3144930;28;20421;-64
2022/09/12 01:14:38;;;;;;;5.47;4.40;;;;;;;19.08;75.87;99250.38;3145217;28;20045;-64
2022/09/12 01:16:10;;;;;;;7.57;4.57;;;;;;;19.14;75.81;99272.72;3144754;28;20105;-65
2022/09/12 01:17:56;;;;;;;6.15;4.28;;;;;;;19.11;75.47;99273.84;3144960;28;20045;-64
2022/09/12 01:20:12;;;;;;;5.00;4.00;;;;;;;19.03;75.72;99271.88;3145017;28;20489;-65
2022/09/12 01:21:55;;;;;;;5.82;4.55;;;;;;;18.98;75.75;99270.63;3145036;28;20051;-66
2022/09/12 01:24:12;;;;;;;6.65;4.50;;;;;;;18.95;75.68;99270.88;3144979;28;20533;-65
2022/09/12 01:26:00;;;;;;;5.57;4.30;;;;;;;18.90;75.89;99267.81;3144521;28;20131;-65
2022/09/12 01:27:47;;;;;;;5.55;4.32;;;;;;;18.90;75.79;99263.38;3145045;28;20044;-67
2022/09/12 01:29:41;;;;;;;4.88;4.32;;;;;;;18.92;75.83;99268.50;3145103;28;20483;-65
2022/09/12 01:31:18;;;;;;;8.10;4.37;;;;;;;18.86;75.95;99268.09;3144835;28;20056;-65
2022/09/12 01:33:04;;;;;;;5.05;4.32;;;;;;;18.80;75.81;99249.31;3144987;28;20318;-66
2022/09/12 01:34:45;;;;;;;6.55;3.97;;;;;;;18.84;75.92;99256.84;3145127;28;20053;-65
2022/09/12 01:36:34;;;;;;;6.90;4.80;;;;;;;18.89;75.81;99252.97;3144703;28;20057;-66
2022/09/12 01:38:13;;;;;;;5.35;3.90;;;;;;;18.86;75.70;99260.16;3144924;28;20048;-65
2022/09/12 01:39:51;;;;;;;5.75;4.13;;;;;;;18.81;75.88;99256.25;3144928;28;20079;-65
2022/09/12 01:41:27;;;;;;;6.05;4.25;;;;;;;18.83;75.96;99262.25;3144989;28;20044;-66
2022/09/12 01:43:10;;;;;;;7.10;4.38;;;;;;;18.75;75.67;99249.75;3144499;28;20045;-65
2022/09/12 01:44:50;;;;;;;5.18;3.67;;;;;;;18.84;75.41;99254.22;3144438;28;20081;-66
2022/09/12 01:46:32;;;;;;;5.78;3.80;;;;;;;18.83;75.29;99259.59;3144674;28;20135;-65
2022/09/12 01:48:11;;;;;;;4.60;3.88;;;;;;;18.81;75.08;99249.22;3144746;28;20436;-65
2022/09/12 01:49:52;;;;;;;5.47;4.10;;;;;;;18.81;75.00;99243.94;3144746;28;20438;-65
2022/09/12 01:51:28;;;;;;;4.78;3.63;;;;;;;18.85;74.74;99252.41;3144780;28;20048;-65
2022/09/12 01:53:03;;;;;;;5.78;4.13;;;;;;;18.89;74.65;99255.59;3145075;28;20056;-66
2022/09/12 01:54:41;;;;;;;3.92;3.53;;;;;;;18.90;74.54;99241.44;3145052;28;20151;-65
2022/09/12 01:56:21;;;;;;;4.88;4.00;;;;;;;18.88;74.14;99241.56;3144485;28;20045;-65
2022/09/12 01:57:57;;;;;;;4.82;3.95;;;;;;;18.90;74.07;99250.19;3144578;28;20079;-66
2022/09/12 01:59:32;;;;;;;6.63;3.60;;;;;;;18.85;73.83;99245.31;3144822;28;20135;-65
2022/09/12 02:01:09;;;;;;;5.03;3.78;;;;;;;18.78;73.60;99232.78;3145044;28;20053;-65
2022/09/12 02:02:47;;;;;;;4.50;3.10;;;;;;;18.86;73.52;99246.16;3145088;28;21301;-65
2022/09/12 02:04:22;;;;;;;4.95;3.60;;;;;;;18.77;73.34;99245.16;3144926;28;20449;-65
2022/09/12 02:06:00;;;;;;;4.25;3.30;;;;;;;18.79;73.01;99248.50;3144584;28;20576;-65
2022/09/12 02:07:38;;;;;;;5.70;3.50;;;;;;;18.76;72.83;99245.31;3144848;28;20148;-65
2022/09/12 02:09:18;;;;;;;7.72;4.00;;;;;;;18.79;72.71;99245.03;3144202;28;20458;-65
2022/09/12 02:10:55;;;;;;;5.57;3.60;;;;;;;18.78;72.57;99252.13;3144473;28;20088;-65
2022/09/12 02:12:31;;;;;;;4.05;3.25;;;;;;;18.78;72.35;99246.84;3144779;28;20117;-65
2022/09/12 02:14:08;;;;;;;4.88;3.88;;;;;;;18.78;72.14;99245.97;3144060;28;20438;-66
2022/09/12 02:15:42;;;;;;;5.32;3.92;;;;;;;18.74;71.97;99252.50;3140561;28;20052;-65
2022/09/12 02:17:18;;;;;;;3.63;3.22;;;;;;;18.71;71.91;99253.56;3139039;28;20171;-65
2022/09/12 02:18:56;;;;;;;4.63;3.67;;;;;;;18.69;71.77;99247.59;3144528;28;20121;-65
2022/09/12 02:20:30;;;;;;;4.95;3.40;;;;;;;18.63;71.80;99240.22;3147045;28;20078;-65
2022/09/12 02:22:05;;;;;;;6.38;3.30;;;;;;;18.67;71.47;99244.28;3148819;28;20135;-65
2022/09/12 02:23:41;;;;;;;4.93;3.65;;;;;;;18.68;71.53;99253.84;3148908;28;20158;-65
2022/09/12 02:25:17;;;;;;;7.10;3.58;;;;;;;18.63;71.37;99241.06;3147742;28;20110;-66
2022/09/12 02:26:54;;;;;;;4.00;3.42;;;;;;;18.67;71.17;99246.91;3147507;28;20581;-65
2022/09/12 02:28:29;;;;;;;6.13;3.90;;;;;;;18.57;70.92;99227.56;3148068;28;20048;-66
2022/09/12 02:30:00;;;;;;;4.47;3.40;;;;;;;18.69;70.98;99249.41;3147997;28;20075;-66
2022/09/12 02:31:40;;;;;;;5.22;3.28;;;;;;;18.67;70.81;99251.34;3147958;28;20134;-65
2022/09/12 02:33:20;;;;;;;3.70;3.03;;;;;;;18.59;70.70;99233.56;3147728;28;20064;-65
2022/09/12 02:35:00;;;;;;;4.95;3.60;;;;;;;18.67;70.57;99239.00;3147969;28;20070;-65
2022/09/12 02:36:38;;;;;;;3.63;3.08;;;;;;;18.65;70.13;99251.47;3148045;28;20052;-65
2022/09/12 02:38:15;;;;;;;7.75;3.30;;;;;;;18.60;69.86;99251.91;3147025;28;20044;-65
2022/09/12 02:39:46;;;;;;;4.05;3.22;;;;;;;18.59;69.86;99252.00;3147851;28;20449;-66
2022/09/12 02:41:20;;;;;;;4.97;3.40;;;;;;;18.57;69.77;99248.66;3147544;28;20052;-65
2022/09/12 02:42:52;;;;;;;4.18;3.15;;;;;;;18.60;69.62;99246.63;3147661;28;20048;-65
2022/09/12 02:44:25;;;;;;;6.43;3.75;;;;;;;18.59;69.15;99247.56;3147561;28;20414;-66
2022/09/12 02:45:57;;;;;;;4.05;3.65;;;;;;;18.59;69.42;99250.19;3141405;28;20044;-66
2022/09/12 02:47:34;;;;;;;5.13;3.30;;;;;;;18.60;69.21;99246.63;3147926;28;20059;-65
2022/09/12 02:49:06;;;;;;;5.20;3.50;;;;;;;18.59;69.18;99252.84;3148026;28;20445;-67
2022/09/12 02:50:40;;;;;;;4.35;3.20;;;;;;;18.60;68.95;99251.03;3147811;28;20426;-67
2022/09/12 02:52:11;;;;;;;8.77;3.53;;;;;;;18.63;69.02;99245.50;3147434;28;20063;-67
2022/09/12 02:53:43;;;;;;;5.65;3.75;;;;;;;18.61;68.97;99247.44;3147655;28;20049;-65
2022/09/12 02:55:14;;;;;;;4.90;3.08;;;;;;;18.57;68.74;99241.59;3147838;28;20052;-66
2022/09/12 02:56:46;;;;;;;5.43;3.70;;;;;;;18.63;68.61;99241.06;3147704;28;20048;-66
2022/09/12 02:58:23;;;;;;;6.03;3.20;;;;;;;18.64;68.45;99244.53;3147687;28;20118;-66
2022/09/12 02:59:58;;;;;;;5.07;3.10;;;;;;;18.65;68.45;99240.94;3141541;28;20049;-66
2022/09/12 03:01:48;;;;;;;5.40;3.08;;;;;;;18.64;68.26;99236.63;3141473;28;20078;-66
2022/09/12 03:03:34;;;;;;;3.50;2.72;;;;;;;18.63;68.11;99234.94;3142878;28;20044;-66
2022/09/12 03:05:22;;;;;;;6.47;2.88;;;;;;;18.62;68.16;99226.19;3148367;28;20048;-67
2022/09/12 03:07:12;;;;;;;3.83;2.65;;;;;;;18.60;67.44;99236.06;3148352;28;20533;-66
2022/09/12 03:09:00;;;;;;;4.60;3.03;;;;;;;18.58;67.42;99232.72;3148176;28;20466;-67
2022/09/12 03:10:40;;;;;;;7.07;2.58;;;;;;;18.59;67.29;99230.91;3143794;28;20051;-67
2022/09/12 03:12:26;;;;;;;3.05;2.58;;;;;;;18.60;66.98;99232.56;3143562;28;20056;-67
2022/09/12 03:14:09;;;;;;;3.83;2.80;;;;;;;18.60;66.95;99235.22;3148549;28;20580;-67
2022/09/12 03:15:49;;;;;;;3.50;2.75;;;;;;;18.57;66.90;99225.75;3148728;28;20086;-67
2022/09/12 03:17:30;;;;;;;3.00;2.67;;;;;;;18.54;67.11;99228.66;3148423;28;20456;-67
2022/09/12 03:19:09;;;;;;;7.35;2.78;;;;;;;18.52;67.07;99233.25;3148560;28;20073;-66
2022/09/12 03:20:50;;;;;;;2.85;2.50;;;;;;;18.51;67.00;99233.38;3148529;28;20048;-68
2022/09/12 03:22:31;;;;;;;4.85;2.72;;;;;;;18.49;67.23;99235.34;3148288;28;20437;-67
2022/09/12 03:24:13;;;;;;;5.65;2.72;;;;;;;18.47;67.12;99232.81;3148236;28;20052;-67
2022/09/12 03:25:51;;;;;;;4.05;2.80;;;;;;;18.47;67.03;99232.00;3148120;28;20135;-67
2022/09/12 03:27:30;;;;;;;5.60;3.10;;;;;;;18.35;67.09;99218.06;3148556;28;20548;-67
2022/09/12 03:29:04;;;;;;;3.42;2.53;;;;;;;18.44;67.08;99242.81;3148519;28;20525;-67
2022/09/12 03:30:39;;;;;;;5.90;3.10;;;;;;;18.45;67.05;99236.56;3148559;28;20056;-67
2022/09/12 03:32:10;;;;;;;7.80;2.60;;;;;;;18.45;67.09;99247.09;3146035;28;20076;-66
2022/09/12 03:33:42;;;;;;;4.38;2.97;;;;;;;18.39;67.17;99251.94;3146211;28;20049;-66
2022/09/12 03:35:16;;;;;;;4.80;3.03;;;;;;;18.38;66.94;99247.63;3145635;28;20453;-66
2022/09/12 03:36:48;;;;;;;6.80;2.85;;;;;;;18.41;66.90;99242.09;3146719;28;20056;-66
2022/09/12 03:38:22;;;;;;;4.47;2.72;;;;;;;18.39;66.73;99246.66;3146224;28;20052;-66
2022/09/12 03:39:53;;;;;;;5.85;2.85;;;;;;;18.36;66.78;99244.28;3146226;28;20048;-66
2022/09/12 03:41:25;;;;;;;3.75;2.92;;;;;;;18.35;66.77;99250.53;3146430;28;20056;-66
2022/09/12 03:42:57;;;;;;;2.15;1.95;;;;;;;18.35;66.81;99247.06;3146329;28;20053;-66
2022/09/12 03:44:29;;;;;;;6.38;2.53;;;;;;;18.32;66.63;99247.34;3146108;28;20045;-66
2022/09/12 03:46:00;;;;;;;3.33;2.20;;;;;;;18.33;66.73;99260.38;3146421;28;20048;-66
2022/09/12 03:47:32;;;;;;;7.72;3.08;;;;;;;18.34;66.77;99254.16;3146790;28;20052;-66
2022/09/12 03:49:04;;;;;;;2.95;2.35;;;;;;;18.33;66.78;99255.09;3139711;28;20040;-66
2022/09/12 03:50:36;;;;;;;3.50;2.60;;;;;;;18.31;66.69;99262.31;3146341;28;20044;-67
2022/09/12 03:52:08;;;;;;;3.95;2.45;;;;;;;18.33;66.37;99254.25;3146161;28;20731;-66
2022/09/12 03:53:41;;;;;;;3.08;2.22;;;;;;;18.17;66.36;99234.50;3146343;28;20044;-66
2022/09/12 03:55:13;;;;;;;2.78;2.30;;;;;;;18.31;66.36;99264.09;3146489;28;20045;-66
2022/09/12 03:56:45;;;;;;;3.28;2.20;;;;;;;18.27;66.12;99254.78;3146300;28;20484;-66
2022/09/12 03:58:17;;;;;;;6.53;2.88;;;;;;;18.27;66.16;99263.53;3146018;28;20055;-66
2022/09/12 03:59:49;;;;;;;5.25;2.55;;;;;;;18.26;66.13;99253.13;3146436;28;20052;-66
2022/09/12 04:01:21;;;;;;;4.60;2.42;;;;;;;18.26;66.05;99256.59;3146051;28;20135;-66
2022/09/12 04:02:55;;;;;;;3.55;2.40;;;;;;;18.24;65.93;99255.88;3146254;28;20059;-66
2022/09/12 04:04:26;;;;;;;4.22;2.38;;;;;;;18.24;65.86;99262.97;3146640;28;20131;-67
2022/09/12 04:05:58;;;;;;;3.58;2.10;;;;;;;18.21;66.05;99253.50;3145497;28;20049;-67
2022/09/12 04:07:30;;;;;;;3.97;2.40;;;;;;;18.22;66.10;99252.56;3145994;28;20060;-66
2022/09/12 04:09:04;;;;;;;6.25;2.47;;;;;;;18.23;65.72;99258.66;3145653;28;20057;-67
2022/09/12 04:10:36;;;;;;;4.03;2.30;;;;;;;18.21;66.06;99256.16;3146279;28;20135;-67
2022/09/12 04:12:08;;;;;;;3.10;2.20;;;;;;;18.22;65.98;99263.13;3145919;28;20378;-67
2022/09/12 04:13:41;;;;;;;5.05;2.50;;;;;;;18.22;65.86;99262.25;3139597;28;20052;-66
2022/09/12 04:15:13;;;;;;;4.13;2.50;;;;;;;18.21;65.90;99266.69;3146062;28;20533;-67
2022/09/12 04:16:45;;;;;;;6.25;2.33;;;;;;;18.15;65.78;99261.94;3145954;28;20052;-66
2022/09/12 04:18:17;;;;;;;5.35;2.40;;;;;;;18.14;65.81;99261.13;3145932;28;20048;-67
2022/09/12 04:19:49;;;;;;;4.57;2.00;;;;;;;18.13;65.88;99262.09;3145668;28;20068;-67
2022/09/12 04:21:21;;;;;;;3.53;2.38;;;;;;;18.15;65.80;99262.78;3145881;28;20048;-65
2022/09/12 04:22:52;;;;;;;5.60;2.30;;;;;;;18.18;65.74;99267.78;3145849;28;20582;-65
2022/09/12 04:24:25;;;;;;;3.35;2.17;;;;;;;18.19;65.66;99279.19;3145833;28;20389;-65
2022/09/12 04:25:58;;;;;;;6.20;2.58;;;;;;;18.15;65.60;99275.13;3145715;28;20047;-65
2022/09/12 04:27:30;;;;;;;;;;;;;;;18.10;65.78;99280.81;3146101;28;20106;-65
2022/09/12 04:29:02;;;;;;;3.58;2.55;;;;;;;18.10;65.86;99274.66;3145483;28;19928;-65
2022/09/12 04:30:34;;;;;;;3.08;1.85;;;;;;;18.09;65.86;99273.00;3145400;28;20044;-65
2022/09/12 04:32:06;;;;;;;2.53;1.88;;;;;;;18.12;65.85;99278.84;3145374;28;20501;-65
2022/09/12 04:33:38;;;;;;;4.47;2.15;;;;;;;18.16;65.83;99284.69;3145775;28;20449;-65
2022/09/12 04:35:11;;;;;;;2.65;1.73;;;;;;;18.16;65.77;99282.91;3144745;28;20625;-64
2022/09/12 04:36:42;;;;;;;3.28;2.15;;;;;;;18.13;65.96;99287.59;3145736;28;20048;-65
2022/09/12 04:38:14;;;;;;;4.60;2.03;;;;;;;18.14;65.86;99281.38;3145103;28;20048;-64
2022/09/12 04:39:48;;;;;;;1.92;1.70;;;;;;;18.15;65.79;99289.13;3145697;28;20131;-64
2022/09/12 04:41:22;;;;;;;6.80;1.75;;;;;;;18.12;65.67;99289.38;3144762;28;20448;-64
2022/09/12 04:42:54;;;;;;;4.05;2.70;;;;;;;18.08;65.47;99288.00;3145251;28;20048;-64
2022/09/12 04:44:26;;;;;;;7.40;1.83;;;;;;;18.10;65.58;99286.06;3145832;28;20052;-64
2022/09/12 04:46:05;;;;;;;4.88;2.13;;;;;;;18.11;65.51;99287.72;3145283;28;20052;-65
2022/09/12 04:47:37;;;;;;;5.05;1.92;;;;;;;18.09;65.33;99297.56;3145407;28;20052;-66
2022/09/12 04:49:09;;;;;;;2.60;2.22;;;;;;;18.11;65.24;99302.72;3145303;28;20056;-65
2022/09/12 04:50:41;;;;;;;2.70;2.00;;;;;;;18.11;65.19;99302.72;3145292;28;20053;-65
2022/09/12 04:52:12;;;;;;;6.45;1.98;;;;;;;18.13;65.29;99306.03;3144011;28;20469;-65
2022/09/12 04:53:48;;;;;;;3.08;2.17;;;;;;;18.11;65.22;99305.34;3145242;28;20056;-65
2022/09/12 04:55:25;;;;;;;4.47;1.40;;;;;;;18.02;65.05;99287.69;3145512;28;20048;-66
2022/09/12 04:56:56;;;;;;;6.10;1.77;;;;;;;18.12;64.88;99302.56;3145315;28;20052;-66
2022/09/12 04:58:27;;;;;;;5.10;2.03;;;;;;;18.14;64.88;99299.81;3145472;28;20410;-64
2022/09/12 05:00:00;;;;;;;3.08;1.85;;;;;;;18.11;64.72;99308.81;3145193;28;20063;-65
2022/09/12 05:01:31;;;;;;;4.00;2.00;;;;;;;18.12;64.75;99304.38;3145452;28;20490;-65
2022/09/12 05:03:03;;;;;;;3.90;2.10;;;;;;;18.13;64.66;99306.03;3145147;28;20052;-66
2022/09/12 05:04:34;;;;;;;6.13;1.88;;;;;;;18.17;64.43;99310.09;3144873;28;20052;-66
2022/09/12 05:06:09;;;;;;;3.22;1.90;;;;;;;18.17;64.34;99310.94;3143428;28;20663;-67
2022/09/12 05:07:41;;;;;;;2.45;1.50;;;;;;;18.19;64.20;99316.91;3143618;28;20048;-67
2022/09/12 05:09:14;;;;;;;2.53;1.70;;;;;;;18.21;64.11;99315.94;3141223;28;20052;-67
2022/09/12 05:10:48;;;;;;;4.45;2.00;;;;;;;18.22;64.01;99315.81;3145088;28;20154;-67
2022/09/12 05:12:19;;;;;;;;;;;;;;;18.23;63.73;99311.38;3144252;28;20083;-63
2022/09/12 05:13:51;;;;;;;2.03;1.55;;;;;;;18.24;63.96;99321.78;3144042;28;19954;-64
2022/09/12 05:15:23;;;;;;;4.88;1.80;;;;;;;18.26;63.78;99322.50;3144293;28;20049;-64
2022/09/12 05:16:59;;;;;;;4.55;2.10;;;;;;;18.32;63.75;99318.50;3144244;28;20040;-63
2022/09/12 05:18:32;;;;;;;2.65;1.65;;;;;;;18.35;63.19;99329.63;3144564;28;20048;-63
2022/09/12 05:20:04;;;;;;;3.53;1.40;;;;;;;18.35;63.13;99321.72;3137484;28;20036;-62
2022/09/12 05:21:36;;;;;;;12.40;4.20;;;;;;;18.36;63.06;99327.81;3144038;28;20051;-66
2022/09/12 05:23:07;;;;;;;7.38;2.85;;;;;;;18.37;62.88;99337.41;3144148;28;20509;-64
2022/09/12 05:24:42;;;;;;;3.60;1.88;;;;;;;18.37;62.64;99340.88;3144041;28;20075;-67
2022/09/12 05:26:17;;;;;;;2.72;1.98;;;;;;;18.40;62.85;99335.34;3144229;28;20048;-67
2022/09/12 05:27:52;;;;;;;2.83;1.50;;;;;;;18.47;62.81;99337.44;3139618;28;20514;-65
2022/09/12 05:29:25;;;;;;;5.00;1.70;;;;;;;18.49;62.74;99332.91;3143836;28;20143;-63
2022/09/12 05:31:01;;;;;;;3.85;2.33;;;;;;;18.54;62.78;99335.94;3144164;28;20131;-66
2022/09/12 05:32:32;;;;;;;30.33;16.30;;;;;;;18.58;62.55;99340.00;3144874;28;20045;-64
2022/09/12 05:34:07;;;;;;;6.18;2.97;;;;;;;18.61;62.47;99340.59;3142368;28;20044;-66
2022/09/12 05:35:39;;;;;;;3.35;2.05;;;;;;;18.68;62.28;99335.59;3145009;28;20048;-64
2022/09/12 05:37:11;;;;;;;8.82;2.30;;;;;;;18.76;62.28;99335.81;3140846;28;20044;-64
2022/09/12 05:38:43;;;;;;;30.42;17.50;;;;;;;18.89;62.04;99338.22;3144200;28;20041;-68
2022/09/12 05:40:18;;;;;;;13.82;7.72;;;;;;;18.99;61.73;99333.81;3145260;28;20048;-66
2022/09/12 05:41:51;;;;;;;82.65;38.80;;;;;;;19.13;61.65;99327.31;3144623;28;20049;-67
2022/09/12 05:43:22;;;;;;;140.75;98.90;;;;;;;19.27;61.30;99334.84;3145033;28;20445;-68
2022/09/12 05:44:53;;;;;;;5.70;2.70;;;;;;;19.38;60.86;99331.25;3144837;28;20048;-64
2022/09/12 05:46:28;;;;;;;7.05;2.75;;;;;;;19.53;60.71;99331.69;3144727;28;20049;-62
2022/09/12 05:47:59;;;;;;;5.95;2.05;;;;;;;19.68;60.56;99330.34;3138686;28;20048;-63
2022/09/12 05:49:31;;;;;;;5.28;1.55;;;;;;;19.80;59.74;99325.75;3144949;28;20052;-62
2022/09/12 05:51:08;;;;;;;4.28;1.80;;;;;;;19.83;59.11;99314.91;3144650;28;20071;-64
2022/09/12 05:52:40;;;;;;;2.05;1.50;;;;;;;20.05;58.72;99334.06;3145198;28;20581;-62
2022/09/12 05:54:13;;;;;;;7.32;1.45;;;;;;;20.12;57.99;99336.00;3144784;28;20068;-62
2022/09/12 05:55:45;;;;;;;3.65;1.15;;;;;;;20.14;57.55;99328.78;3144098;28;20052;-62
2022/09/12 05:57:19;;;;;;;3.33;1.52;;;;;;;20.20;57.48;99320.28;3144172;28;20055;-62
2022/09/12 05:58:54;;;;;;;2.65;1.50;;;;;;;20.30;57.27;99327.34;3144395;28;20157;-63
2022/09/12 06:00:26;;;;;;;3.42;1.10;;;;;;;20.38;57.05;99330.09;3144665;28;20049;-65
2022/09/12 06:01:59;;;;;;;2.83;1.40;;;;;;;20.44;56.62;99329.56;3144287;28;20445;-62
2022/09/12 06:03:30;;;;;;;4.30;1.48;;;;;;;20.49;56.13;99327.28;3144675;28;20056;-62
2022/09/12 06:05:02;;;;;;;5.25;1.63;;;;;;;20.57;56.28;99334.53;3144830;28;20527;-61
2022/09/12 06:06:37;;;;;;;2.40;1.10;;;;;;;20.61;55.68;99326.16;3144518;28;20040;-62
2022/09/12 06:08:10;;;;;;;8.43;1.80;;;;;;;20.61;55.14;99326.16;3138465;28;20264;-63
2022/09/12 06:09:42;;;;;;;6.47;1.30;;;;;;;20.68;55.08;99337.00;3143386;28;20164;-61
2022/09/12 06:11:16;;;;;;;4.25;1.48;;;;;;;20.68;54.85;99326.44;3144608;28;20532;-63
2022/09/12 06:12:49;;;;;;;12.02;5.47;;;;;;;20.76;54.91;99329.16;3143695;28;20460;-67
2022/09/12 06:14:21;;;;;;;;;;;;;;;20.77;54.54;99332.66;3145256;28;20044;-68
2022/09/12 06:15:53;;;;;;;35.92;17.10;;;;;;;20.80;54.53;99327.06;3144775;28;19921;-66
2022/09/12 06:17:25;;;;;;;5.32;2.88;;;;;;;20.80;54.03;99322.63;3145111;28;20045;-64
2022/09/12 06:18:59;;;;;;;6.43;1.55;;;;;;;20.88;53.91;99328.00;3144492;28;20045;-63
2022/09/12 06:20:30;;;;;;;6.13;1.35;;;;;;;20.87;53.91;99328.97;3144453;28;20118;-64
2022/09/12 06:22:02;;;;;;;5.28;1.45;;;;;;;20.93;53.86;99324.91;3143878;28;20053;-64
2022/09/12 06:23:33;;;;;;;5.75;1.20;;;;;;;20.91;53.58;99321.56;3143640;28;20056;-64
2022/09/12 06:25:07;;;;;;;4.47;1.25;;;;;;;20.95;53.45;99316.84;3143882;28;20150;-65
2022/09/12 06:26:39;;;;;;;9.75;1.02;;;;;;;20.99;53.52;99323.50;3144574;28;20049;-64
2022/09/12 06:28:12;;;;;;;5.20;1.77;;;;;;;21.02;52.81;99323.19;3144427;28;20059;-64
2022/09/12 06:29:44;;;;;;;1.77;0.98;;;;;;;21.04;52.87;99318.59;3144588;28;20052;-64
2022/09/12 06:31:18;;;;;;;1.38;0.90;;;;;;;21.09;52.60;99324.28;3144757;28;20056;-64
2022/09/12 06:32:50;;;;;;;3.17;0.93;;;;;;;21.12;52.44;99327.47;3143677;28;20445;-64
2022/09/12 06:34:22;;;;;;;4.25;1.10;;;;;;;21.17;52.53;99323.53;3143516;28;20053;-64
2022/09/12 06:35:53;;;;;;;3.60;1.30;;;;;;;21.17;52.34;99320.88;3138738;28;20044;-64
2022/09/12 06:37:25;;;;;;;3.55;0.90;;;;;;;21.23;51.87;99320.28;3143403;28;20080;-65
2022/09/12 06:38:59;;;;;;;3.65;1.52;;;;;;;21.31;52.30;99317.72;3142858;28;20075;-65
2022/09/12 06:40:31;;;;;;;5.47;1.33;;;;;;;21.37;52.05;99306.56;3143352;28;20083;-64
2022/09/12 06:42:03;;;;;;;5.18;1.08;;;;;;;21.46;51.76;99316.25;3141607;28;20052;-65
2022/09/12 06:43:37;;;;;;;3.95;1.08;;;;;;;21.47;51.34;99315.25;3143259;28;20059;-65
2022/09/12 06:45:10;;;;;;;2.58;1.27;;;;;;;21.53;51.38;99319.13;3142936;28;20048;-65
2022/09/12 06:46:43;;;;;;;2.92;1.05;;;;;;;21.56;51.27;99309.09;3142779;28;20044;-64
2022/09/12 06:48:14;;;;;;;6.15;1.08;;;;;;;21.66;51.52;99310.81;3144089;28;20056;-64
2022/09/12 06:49:46;;;;;;;3.33;1.00;;;;;;;21.74;51.46;99317.03;3143420;28;20053;-63
2022/09/12 06:51:20;;;;;;;2.85;1.10;;;;;;;21.81;50.91;99314.59;3144107;28;20040;-64
2022/09/12 06:52:51;;;;;;;;;;;;;;;21.85;50.78;99323.06;3144560;28;20131;-65
2022/09/12 06:54:25;;;;;;;3.22;1.10;;;;;;;21.89;50.39;99322.63;3144134;28;19921;-65
2022/09/12 06:55:58;;;;;;;3.75;1.20;;;;;;;21.87;50.51;99302.53;3144236;28;20094;-65
2022/09/12 06:57:31;;;;;;;1.23;1.08;;;;;;;22.04;50.21;99320.25;3144150;28;20049;-64
2022/09/12 06:59:04;;;;;;;2.03;1.30;;;;;;;22.15;50.42;99314.66;3143785;28;20059;-63
2022/09/12 07:00:36;;;;;;;6.65;1.10;;;;;;;22.31;50.33;99313.16;3143745;28;20053;-63
2022/09/12 07:02:09;;;;;;;3.15;1.00;;;;;;;22.36;49.51;99314.34;3143882;28;20573;-63
2022/09/12 07:03:41;;;;;;;2.63;1.45;;;;;;;22.47;49.88;99324.69;3144262;28;20506;-62
2022/09/12 07:05:14;;;;;;;10.73;1.42;;;;;;;22.60;49.52;99326.09;3144500;28;20059;-62
2022/09/12 07:06:46;;;;;;;5.13;1.15;;;;;;;22.70;49.16;99314.34;3143578;28;20051;-62
2022/09/12 07:08:18;;;;;;;4.95;1.05;;;;;;;22.79;48.33;99314.41;3138823;28;20048;-62
2022/09/12 07:09:50;;;;;;;5.72;1.30;;;;;;;22.86;48.06;99321.53;3146331;28;20055;-63
2022/09/12 07:11:24;;;;;;;2.63;1.05;;;;;;;22.73;48.02;99302.59;3145271;28;20049;-63
2022/09/12 07:12:55;;;;;;;4.05;1.10;;;;;;;22.82;47.65;99320.22;3146810;28;20415;-64
2022/09/12 07:14:29;;;;;;;5.22;1.13;;;;;;;22.89;47.90;99315.09;3146164;28;20537;-63
2022/09/12 07:16:01;;;;;;;;;;;;;;;22.95;47.61;99322.44;3146745;28;20052;-63
2022/09/12 07:17:33;;;;;;;1.33;0.93;;;;;;;23.08;47.54;99320.19;3146194;28;20003;-63
2022/09/12 07:19:07;;;;;;;1.30;0.65;;;;;;;23.26;47.58;99312.09;3146295;28;20502;-63
2022/09/12 07:20:38;;;;;;;4.53;1.00;;;;;;;23.42;47.35;99310.47;3143014;28;20055;-63
2022/09/12 07:22:11;;;;;;;3.35;0.60;;;;;;;23.52;46.34;99297.88;3145699;28;20068;-63
2022/09/12 07:23:43;;;;;;;2.80;0.63;;;;;;;23.68;46.34;99307.66;3145848;28;20044;-63
2022/09/12 07:25:15;;;;;;;7.95;1.05;;;;;;;23.79;45.93;99304.72;3146332;28;20054;-63
2022/09/12 07:26:47;;;;;;;2.83;0.60;;;;;;;23.85;44.91;99312.03;3145669;28;20079;-61